createdAt,value
2019-04-06T00:02:36.813Z,11.40
2019-04-06T00:05:43.192Z,10.83
2019-04-06T00:08:49.621Z,11.10
2019-04-06T00:11:56.057Z,11.87
2019-04-06T00:15:02.691Z,11.40
2019-04-06T00:18:09.030Z,11.60
2019-04-06T00:21:16.586Z,10.83
2019-04-06T00:24:22.888Z,11.67
2019-04-06T00:27:29.364Z,11.13
2019-04-06T00:30:56.056Z,10.50
2019-04-06T00:34:03.234Z,12.37
2019-04-06T00:37:09.549Z,11.67
2019-04-06T00:40:16.374Z,12.27
2019-04-06T00:43:22.778Z,11.40
2019-04-06T00:46:30.266Z,11.90
2019-04-06T00:49:36.524Z,11.30
2019-04-06T00:52:42.929Z,11.77
2019-04-06T00:55:55.545Z,11.63
2019-04-06T00:58:58.472Z,11.50
2019-04-06T01:02:05.623Z,12.17
2019-04-06T01:05:12.353Z,11.27
2019-04-06T01:08:18.752Z,10.77
2019-04-06T01:11:26.391Z,11.00
2019-04-06T01:14:32.755Z,11.53
2019-04-06T01:17:39.123Z,11.47
2019-04-06T01:20:45.475Z,12.13
2019-04-06T01:23:51.872Z,10.60
2019-04-06T01:26:58.399Z,11.33
2019-04-06T01:30:06.141Z,11.20
2019-04-06T01:33:12.555Z,12.20
2019-04-06T01:36:19.006Z,11.47
2019-04-06T01:39:25.768Z,11.07
2019-04-06T01:42:32.029Z,11.40
2019-04-06T01:45:38.506Z,11.27
2019-04-06T01:48:45.671Z,11.73
2019-04-06T01:51:51.943Z,12.00
2019-04-06T01:54:59.232Z,10.67
2019-04-06T01:58:05.668Z,10.60
2019-04-06T02:01:18.345Z,11.30
2019-04-06T02:04:24.720Z,11.03
2019-04-06T02:07:31.458Z,10.93
2019-04-06T02:10:37.752Z,10.70
2019-04-06T02:13:44.342Z,10.63
2019-04-06T02:16:50.763Z,10.67
2019-04-06T02:19:57.129Z,11.17
2019-04-06T02:23:03.529Z,10.63
2019-04-06T02:26:10.106Z,10.30
2019-04-06T02:29:16.534Z,9.58
2019-04-06T02:32:31.203Z,9.57
2019-04-06T02:35:46.180Z,9.80
2019-04-06T02:38:57.327Z,9.43
2019-04-06T02:42:14.474Z,9.30
2019-04-06T02:45:22.345Z,9.70
2019-04-06T02:48:28.601Z,9.20
2019-04-06T02:51:35.794Z,10.60
2019-04-06T02:54:42.174Z,10.13
2019-04-06T02:57:48.934Z,9.63
2019-04-06T03:00:55.357Z,9.23
2019-04-06T03:04:02.547Z,8.80
2019-04-06T03:07:08.989Z,8.97
2019-04-06T03:10:15.606Z,9.47
2019-04-06T03:13:21.923Z,9.60
2019-04-06T03:16:28.382Z,9.27
2019-04-06T03:19:35.079Z,8.53
2019-04-06T03:22:41.540Z,8.77
2019-04-06T03:25:47.904Z,9.23
2019-04-06T03:28:55.767Z,9.43
2019-04-06T03:32:02.396Z,8.43
2019-04-06T03:35:08.876Z,9.20
2019-04-06T03:38:15.230Z,7.90
2019-04-06T03:41:22.088Z,8.10
2019-04-06T03:44:28.590Z,8.90
2019-04-06T03:47:35.170Z,8.90
2019-04-06T03:50:41.459Z,8.83
2019-04-06T03:53:47.919Z,7.87
2019-04-06T03:56:54.301Z,8.23
2019-04-06T04:00:00.914Z,8.27
2019-04-06T04:03:07.398Z,7.97
2019-04-06T04:06:14.968Z,8.63
2019-04-06T04:09:22.401Z,7.83
2019-04-06T04:12:28.692Z,8.10
2019-04-06T04:15:35.053Z,7.63
2019-04-06T04:18:41.779Z,8.47
2019-04-06T04:21:48.346Z,8.63
2019-04-06T04:24:54.928Z,7.47
2019-04-06T04:28:01.237Z,8.33
2019-04-06T04:31:07.695Z,7.77
2019-04-06T04:34:13.968Z,8.43
2019-04-06T04:37:20.443Z,7.27
2019-04-06T04:40:27.033Z,8.27
2019-04-06T04:43:33.732Z,8.20
2019-04-06T04:46:40.141Z,7.90
2019-04-06T04:49:47.494Z,8.10
2019-04-06T04:52:53.862Z,7.63
2019-04-06T04:56:01.212Z,7.80
2019-04-06T04:59:07.886Z,7.33
2019-04-06T05:02:14.298Z,7.63
2019-04-06T05:05:20.645Z,7.13
2019-04-06T05:08:27.235Z,7.97
2019-04-06T05:11:33.717Z,7.90
2019-04-06T05:14:59.811Z,8.23
2019-04-06T05:18:06.151Z,7.80
2019-04-06T05:21:13.303Z,8.00
2019-04-06T05:24:19.841Z,7.87
2019-04-06T05:27:26.234Z,8.23
2019-04-06T05:30:32.680Z,7.50
2019-04-06T05:33:39.418Z,7.83
2019-04-06T05:36:45.774Z,8.20
2019-04-06T05:39:52.214Z,8.17
2019-04-06T05:42:58.556Z,8.10
2019-04-06T05:46:05.102Z,7.67
2019-04-06T05:49:11.524Z,7.50
2019-04-06T05:52:17.962Z,7.47
2019-04-06T05:55:24.795Z,8.10
2019-04-06T05:58:32.182Z,7.58
2019-04-06T06:01:40.445Z,7.65
2019-04-06T06:04:46.593Z,8.30
2019-04-06T06:07:53.003Z,7.73
2019-04-06T06:11:00.469Z,7.33
2019-04-06T06:14:07.087Z,8.38
2019-04-06T06:17:14.431Z,8.67
2019-04-06T06:20:20.933Z,8.10
2019-04-06T06:23:27.527Z,8.03
2019-04-06T06:26:34.055Z,7.77
2019-04-06T06:29:40.658Z,7.97
2019-04-06T06:32:47.003Z,7.90
2019-04-06T06:35:53.743Z,9.18
2019-04-06T06:39:00.150Z,8.13
2019-04-06T06:42:06.505Z,7.93
2019-04-06T06:45:12.845Z,8.40
2019-04-06T06:48:19.306Z,8.87
2019-04-06T06:51:27.038Z,9.00
2019-04-06T06:54:33.502Z,8.83
2019-04-06T06:57:39.860Z,8.77
2019-04-06T07:00:47.311Z,9.13
2019-04-06T07:03:53.585Z,10.03
2019-04-06T07:06:59.994Z,9.70
2019-04-06T07:10:06.806Z,9.77
2019-04-06T07:13:13.245Z,8.83
2019-04-06T07:16:19.514Z,10.10
2019-04-06T07:19:26.159Z,10.27
2019-04-06T07:22:32.554Z,10.37
2019-04-06T07:25:39.017Z,9.57
2019-04-06T07:28:45.826Z,10.03
2019-04-06T07:31:52.346Z,10.33
2019-04-06T07:34:58.692Z,9.77
2019-04-06T07:38:05.304Z,11.27
2019-04-06T07:41:11.930Z,11.13
2019-04-06T07:44:18.305Z,11.83
2019-04-06T07:47:24.645Z,10.50
2019-04-06T07:50:31.186Z,10.93
2019-04-06T07:53:37.614Z,11.30
2019-04-06T07:56:44.072Z,11.57
2019-04-06T07:59:50.409Z,12.20
2019-04-06T08:02:58.787Z,11.03
2019-04-06T08:06:05.173Z,11.77
2019-04-06T08:09:11.662Z,11.38
2019-04-06T08:12:18.023Z,11.77
2019-04-06T08:15:24.536Z,11.53
2019-04-06T08:18:30.926Z,11.43
2019-04-06T08:21:37.372Z,12.07
2019-04-06T08:24:44.736Z,11.67
2019-04-06T08:27:51.773Z,12.07
2019-04-06T08:30:58.351Z,12.27
2019-04-06T08:34:04.745Z,12.73
2019-04-06T08:37:11.170Z,12.90
2019-04-06T08:40:17.994Z,13.00
2019-04-06T08:43:24.458Z,12.73
2019-04-06T08:46:30.982Z,13.40
2019-04-06T08:49:37.285Z,13.43
2019-04-06T08:52:44.725Z,12.80
2019-04-06T08:55:51.148Z,11.73
2019-04-06T08:58:57.542Z,12.90
2019-04-06T09:02:08.785Z,12.73
2019-04-06T09:05:23.825Z,13.43
2019-04-06T09:08:41.746Z,13.70
2019-04-06T09:12:04.328Z,12.30
2019-04-06T09:15:14.631Z,13.50
2019-04-06T09:18:25.437Z,12.43
2019-04-06T09:21:34.739Z,12.10
2019-04-06T09:24:43.160Z,10.90
2019-04-06T09:27:51.129Z,10.53
2019-04-06T09:30:57.576Z,10.30
2019-04-06T09:34:04.439Z,9.80
2019-04-06T09:37:11.993Z,9.53
2019-04-06T09:40:27.668Z,9.47
2019-04-06T09:43:35.905Z,8.87
2019-04-06T09:47:06.335Z,9.80
2019-04-06T09:50:27.681Z,8.30
2019-04-06T09:54:06.437Z,8.13
2019-04-06T09:57:30.472Z,7.87
2019-04-06T10:01:13.926Z,8.73
2019-04-06T10:04:34.610Z,7.97
2019-04-06T10:07:59.210Z,8.80
2019-04-06T10:11:24.794Z,8.40
2019-04-06T10:14:51.326Z,8.20
2019-04-06T10:18:08.265Z,7.77
2019-04-06T10:21:37.796Z,8.40
2019-04-06T10:24:56.258Z,7.80
2019-04-06T10:28:23.598Z,8.47
2019-04-06T10:31:47.654Z,7.93
2019-04-06T10:35:06.033Z,8.25
2019-04-06T10:38:31.834Z,8.88
2019-04-06T10:41:49.377Z,9.20
2019-04-06T10:45:15.377Z,9.43
2019-04-06T10:48:41.511Z,9.53
2019-04-06T10:52:07.079Z,8.50
2019-04-06T10:55:36.160Z,9.65
2019-04-06T10:58:53.256Z,9.05
2019-04-06T11:02:31.087Z,10.75
2019-04-06T11:06:08.879Z,10.85
2019-04-06T11:09:34.840Z,9.88
2019-04-06T11:16:27.231Z,10.25
2019-04-06T11:20:01.902Z,10.87
2019-04-06T11:23:25.903Z,12.17
2019-04-06T11:27:00.837Z,10.04
2019-04-06T11:32:15.788Z,10.10
2019-04-06T11:35:52.300Z,11.00
2019-04-06T11:39:26.775Z,11.40
2019-04-06T11:42:52.207Z,9.73
2019-04-06T11:46:10.376Z,11.00
2019-04-06T11:49:34.285Z,10.13
2019-04-06T11:53:15.133Z,10.85
2019-04-06T11:56:39.470Z,11.25
2019-04-06T12:00:07.629Z,10.40
2019-04-06T12:03:29.572Z,10.50
2019-04-06T12:06:53.267Z,10.45
2019-04-06T12:10:11.611Z,9.53
2019-04-06T12:13:24.560Z,10.03
2019-04-06T12:16:40.314Z,10.50
2019-04-06T12:20:21.139Z,10.70
2019-04-06T12:23:47.048Z,10.13
2019-04-06T12:27:15.697Z,10.63
2019-04-06T12:30:37.700Z,10.88
2019-04-06T12:34:09.979Z,10.78
2019-04-06T12:37:41.807Z,10.88
2019-04-06T12:40:58.870Z,11.15
2019-04-06T12:44:30.698Z,11.85
2019-04-06T12:47:48.323Z,12.30
2019-04-06T12:51:10.676Z,10.28
2019-04-06T12:54:34.981Z,11.00
2019-04-06T12:58:03.347Z,9.95
2019-04-06T13:01:28.896Z,10.35
2019-04-06T13:04:51.196Z,10.60
2019-04-06T13:08:06.854Z,9.68
2019-04-06T13:11:38.262Z,9.78
2019-04-06T13:14:59.416Z,9.85
2019-04-06T13:18:11.428Z,9.70
2019-04-06T13:21:36.035Z,10.20
2019-04-06T13:25:04.408Z,10.90
2019-04-06T13:28:35.919Z,10.35
2019-04-06T13:32:00.217Z,10.45
2019-04-06T13:35:21.209Z,10.40
2019-04-06T13:38:54.486Z,10.03
2019-04-06T13:42:33.656Z,10.00
2019-04-06T13:45:52.989Z,10.65
2019-04-06T13:49:09.261Z,9.75
2019-04-06T13:52:23.885Z,10.63
2019-04-06T13:56:04.579Z,11.10
2019-04-06T13:59:20.297Z,11.15
2019-04-06T14:02:54.934Z,10.67
2019-04-06T14:06:35.835Z,10.98
2019-04-06T14:10:04.528Z,11.40
2019-04-06T14:13:29.240Z,11.30
2019-04-06T14:16:43.585Z,10.90
2019-04-06T14:20:08.042Z,11.57
2019-04-06T14:23:22.645Z,12.07
2019-04-06T14:26:46.618Z,10.70
2019-04-06T14:30:30.327Z,10.77
2019-04-06T14:34:07.783Z,10.97
2019-04-06T14:37:21.734Z,10.97
2019-04-06T14:40:38.408Z,11.03
2019-04-06T14:44:06.852Z,11.30
2019-04-06T14:47:47.575Z,11.90
2019-04-06T14:51:04.031Z,10.93
2019-04-06T14:54:29.443Z,11.30
2019-04-06T14:57:53.959Z,10.33
2019-04-06T15:01:19.469Z,11.20
2019-04-06T15:04:51.239Z,11.87
2019-04-06T15:08:28.695Z,10.53
2019-04-06T15:11:47.716Z,12.00
2019-04-06T15:15:02.292Z,12.13
2019-04-06T15:18:33.501Z,10.90
2019-04-06T15:21:49.179Z,11.97
2019-04-06T15:25:05.104Z,11.67
2019-04-06T15:28:39.739Z,10.93
2019-04-06T15:32:10.210Z,10.32
2019-04-06T15:35:36.248Z,11.67
2019-04-06T15:39:04.897Z,11.40
2019-04-06T15:42:18.654Z,11.77
2019-04-06T15:45:43.321Z,11.50
2019-04-06T15:49:24.463Z,10.90
2019-04-06T15:52:53.280Z,10.77
2019-04-06T15:56:09.398Z,10.03
2019-04-06T15:59:35.146Z,10.10
2019-04-06T16:02:52.670Z,10.17
2019-04-06T16:06:04.971Z,10.70
2019-04-06T16:09:26.304Z,10.40
2019-04-06T16:12:44.433Z,11.30
2019-04-06T16:16:13.599Z,12.00
2019-04-06T16:19:36.049Z,10.90
2019-04-06T16:23:01.525Z,10.70
2019-04-06T16:26:21.420Z,12.07
2019-04-06T16:29:47.140Z,12.20
2019-04-06T16:33:01.822Z,12.07
2019-04-06T16:36:24.819Z,11.57
2019-04-06T16:39:50.322Z,11.53
2019-04-06T16:43:28.086Z,10.57
2019-04-06T16:46:48.682Z,9.97
2019-04-06T16:50:26.531Z,9.70
2019-04-06T16:53:44.993Z,10.37
2019-04-06T16:57:15.552Z,10.00
2019-04-06T17:00:30.677Z,9.10
2019-04-06T17:03:52.841Z,9.37
2019-04-06T17:07:17.844Z,8.73
2019-04-06T17:10:34.394Z,9.00
2019-04-06T17:14:08.525Z,8.70
2019-04-06T17:17:22.552Z,8.10
2019-04-06T17:20:35.048Z,8.23
2019-04-06T17:23:51.529Z,8.57
2019-04-06T17:27:08.636Z,8.67
2019-04-06T17:30:27.049Z,8.00
2019-04-06T17:33:49.943Z,8.03
2019-04-06T17:37:03.024Z,8.35
2019-04-06T17:40:15.483Z,8.43
2019-04-06T17:43:47.609Z,7.63
2019-04-06T17:47:16.218Z,7.83
2019-04-06T17:50:43.454Z,7.70
2019-04-06T17:54:08.177Z,7.77
2019-04-06T17:57:39.406Z,10.47
2019-04-06T18:00:51.938Z,8.07
2019-04-06T18:04:11.582Z,7.53
2019-04-06T18:07:49.021Z,7.90
2019-04-06T18:11:20.540Z,8.40
2019-04-06T18:14:27.117Z,8.27
2019-04-06T18:17:34.895Z,8.93
2019-04-06T18:20:41.454Z,9.53
2019-04-06T18:23:48.703Z,8.37
2019-04-06T18:26:55.112Z,9.33
2019-04-06T18:30:01.711Z,8.90
2019-04-06T18:33:16.197Z,9.00
2019-04-06T18:36:25.435Z,8.73
2019-04-06T18:39:32.475Z,10.07
2019-04-06T18:42:38.987Z,9.80
2019-04-06T18:45:45.813Z,9.73
2019-04-06T18:48:52.285Z,9.83
2019-04-06T18:51:58.760Z,10.10
2019-04-06T18:55:05.509Z,9.63
2019-04-06T18:58:13.669Z,8.90
2019-04-06T19:01:20.408Z,9.73
2019-04-06T19:04:27.385Z,9.67
2019-04-06T19:07:33.904Z,9.77
2019-04-06T19:10:40.460Z,9.90
2019-04-06T19:13:47.080Z,10.13
2019-04-06T19:16:53.460Z,10.13
2019-04-06T19:20:01.298Z,10.13
2019-04-06T19:23:09.355Z,9.00
2019-04-06T19:26:15.773Z,9.67
2019-04-06T19:29:22.623Z,9.23
2019-04-06T19:32:29.315Z,9.57
2019-04-06T19:35:35.659Z,9.67
2019-04-06T19:38:42.960Z,10.00
2019-04-06T19:41:49.534Z,9.15
2019-04-06T19:44:56.142Z,9.43
2019-04-06T19:48:03.019Z,9.07
2019-04-06T19:51:09.470Z,9.60
2019-04-06T19:54:16.450Z,9.55
2019-04-06T19:57:22.969Z,10.00
2019-04-06T20:00:30.081Z,9.20
2019-04-06T20:03:38.983Z,9.97
2019-04-06T20:06:44.635Z,10.15
2019-04-06T20:09:51.169Z,9.73
2019-04-06T20:12:57.613Z,8.90
2019-04-06T20:16:04.634Z,9.23
2019-04-06T20:19:11.272Z,9.40
2019-04-06T20:22:18.544Z,9.43
2019-04-06T20:25:25.269Z,10.37
2019-04-06T20:28:32.068Z,9.33
2019-04-06T20:31:38.744Z,10.65
2019-04-06T20:34:45.265Z,10.33
2019-04-06T20:37:52.717Z,10.07
2019-04-06T20:40:59.378Z,9.33
2019-04-06T20:44:09.195Z,8.67
2019-04-06T20:47:16.851Z,10.23
2019-04-06T20:50:23.518Z,10.27
2019-04-06T20:53:31.754Z,9.47
2019-04-06T20:56:53.315Z,10.08
2019-04-06T20:59:50.194Z,9.83
2019-04-06T21:02:58.944Z,10.40
2019-04-06T21:06:05.404Z,10.05
2019-04-06T21:09:14.124Z,9.35
2019-04-06T21:12:20.969Z,10.03
2019-04-06T21:15:28.547Z,10.03
2019-04-06T21:18:35.030Z,9.40
2019-04-06T21:21:41.435Z,10.00
2019-04-06T21:24:49.268Z,10.13
2019-04-06T21:27:55.967Z,10.60
2019-04-06T21:31:02.398Z,10.08
2019-04-06T21:34:11.972Z,10.35
2019-04-06T21:37:17.047Z,9.20
2019-04-06T21:40:23.537Z,10.90
2019-04-06T21:43:31.447Z,9.78
2019-04-06T21:46:38.086Z,10.08
2019-04-06T21:49:44.651Z,9.83
2019-04-06T21:52:51.132Z,9.70
2019-04-06T21:56:03.916Z,10.40
2019-04-06T21:59:06.428Z,9.87
2019-04-06T22:02:12.972Z,9.00
2019-04-06T22:05:19.413Z,9.63
2019-04-06T22:08:25.922Z,9.77
2019-04-06T22:11:33.206Z,10.28
2019-04-06T22:14:39.747Z,10.17
2019-04-06T22:17:46.690Z,10.13
2019-04-06T22:20:53.082Z,10.60
2019-04-06T22:24:00.238Z,10.20
2019-04-06T22:27:07.465Z,11.10
2019-04-06T22:30:14.101Z,10.30
2019-04-06T22:33:20.807Z,10.73
2019-04-06T22:36:27.694Z,10.73
2019-04-06T22:39:35.262Z,10.40
2019-04-06T22:42:42.238Z,10.37
2019-04-06T22:45:48.715Z,11.03
2019-04-06T22:48:55.429Z,10.37
2019-04-06T22:52:02.272Z,10.60
2019-04-06T22:55:09.575Z,10.30
2019-04-06T22:58:16.506Z,10.37
2019-04-06T23:01:24.135Z,10.37
2019-04-06T23:04:50.959Z,10.10
2019-04-06T23:07:56.630Z,9.67
2019-04-06T23:11:03.506Z,11.27
2019-04-06T23:14:10.119Z,10.20
2019-04-06T23:17:16.971Z,10.17
2019-04-06T23:20:24.360Z,10.75
2019-04-06T23:23:30.662Z,11.10
2019-04-06T23:26:37.207Z,10.15
2019-04-06T23:29:44.264Z,10.73
2019-04-06T23:32:50.725Z,10.40
2019-04-06T23:35:57.255Z,10.73
2019-04-06T23:39:05.767Z,10.97
2019-04-06T23:42:12.433Z,10.33
2019-04-06T23:45:18.842Z,10.47
2019-04-06T23:48:25.820Z,9.67
2019-04-06T23:51:32.504Z,10.25
2019-04-06T23:54:39.909Z,10.77
2019-04-06T23:57:46.777Z,11.13
